Terminal Aerodrome Forecast
Issued by NWS

Home | Current Version | Previous Version | Text Only | Print | Product List | Glossary On
Versions: 1 2 3 4 5 6 7 8 9 10 11 12 13
000
FTUS46 KMTR 251122
TAFSJC
TAF
KSJC 251122Z 2512/2612 13004KT P6SM FEW020
     FM251800 VRB03KT P6SM FEW030 SCT080
     FM252100 31007KT P6SM VCSH FEW030 SCT100
     FM260300 14006KT P6SM FEW040 BKN100
     FM260700 30003KT P6SM FEW040 SCT100
     FM261100 00000KT P6SM SKC=

USA.gov is the U.S. government's official web portal to all federal, state and local government web resources and services.